createdAt,value
2019-05-11T00:01:39.834Z,11.10
2019-05-11T00:04:12.647Z,11.10
2019-05-11T00:06:45.617Z,11.10
2019-05-11T00:09:18.447Z,11.10
2019-05-11T00:11:51.270Z,11.20
2019-05-11T00:14:24.127Z,11.20
2019-05-11T00:16:57.191Z,11.20
2019-05-11T00:19:29.984Z,11.20
2019-05-11T00:22:02.881Z,11.10
2019-05-11T00:24:35.824Z,11.00
2019-05-11T00:27:08.680Z,11.00
2019-05-11T00:29:42.111Z,10.90
2019-05-11T00:32:14.937Z,10.80
2019-05-11T00:34:47.981Z,10.80
2019-05-11T00:37:20.825Z,10.70
2019-05-11T00:39:53.774Z,10.60
2019-05-11T00:42:26.760Z,10.60
2019-05-11T00:44:59.589Z,10.60
2019-05-11T00:47:32.543Z,10.60
2019-05-11T00:50:06.717Z,10.60
2019-05-11T00:52:39.669Z,10.50
2019-05-11T00:55:12.445Z,10.50
2019-05-11T00:57:45.302Z,10.50
2019-05-11T01:00:18.530Z,10.40
2019-05-11T01:02:51.395Z,10.40
2019-05-11T01:05:24.284Z,10.40
2019-05-11T01:07:58.090Z,10.40
2019-05-11T01:10:41.737Z,10.40
2019-05-11T01:13:05.687Z,10.40
2019-05-11T01:15:38.569Z,10.40
2019-05-11T01:18:11.967Z,10.40
2019-05-11T01:20:44.845Z,10.50
2019-05-11T01:23:17.726Z,10.40
2019-05-11T01:25:50.904Z,10.40
2019-05-11T01:28:23.847Z,10.30
2019-05-11T01:30:56.821Z,10.40
2019-05-11T01:33:29.659Z,10.30
2019-05-11T01:36:02.466Z,10.30
2019-05-11T01:38:35.289Z,10.40
2019-05-11T01:41:08.096Z,10.40
2019-05-11T01:43:40.967Z,10.40
2019-05-11T01:46:13.822Z,10.40
2019-05-11T01:48:46.645Z,10.40
2019-05-11T01:51:19.451Z,10.40
2019-05-11T01:53:52.293Z,10.40
2019-05-11T01:56:25.133Z,10.40
2019-05-11T01:58:57.931Z,10.40
2019-05-11T02:01:30.754Z,10.40
2019-05-11T02:04:03.678Z,10.40
2019-05-11T02:06:36.519Z,10.30
2019-05-11T02:09:09.332Z,10.30
2019-05-11T02:11:42.156Z,10.20
2019-05-11T02:14:14.968Z,10.30
2019-05-11T02:16:47.771Z,10.30
2019-05-11T02:19:20.584Z,10.20
2019-05-11T02:21:53.376Z,10.20
2019-05-11T02:24:26.241Z,10.20
2019-05-11T02:26:59.055Z,10.20
2019-05-11T02:29:31.871Z,10.10
2019-05-11T02:32:04.699Z,10.10
2019-05-11T02:34:37.654Z,10.10
2019-05-11T02:37:12.498Z,10.20
2019-05-11T02:39:45.308Z,10.20
2019-05-11T02:42:18.168Z,10.20
2019-05-11T02:44:50.971Z,10.20
2019-05-11T02:47:23.793Z,10.20
2019-05-11T02:49:56.584Z,10.20
2019-05-11T02:52:30.272Z,10.20
2019-05-11T02:55:03.702Z,10.20
2019-05-11T02:57:36.669Z,10.20
2019-05-11T03:00:11.782Z,10.10
2019-05-11T03:02:44.582Z,10.10
2019-05-11T03:05:17.472Z,10.10
2019-05-11T03:07:50.269Z,10.20
2019-05-11T03:10:23.138Z,10.10
2019-05-11T03:12:56.003Z,10.20
2019-05-11T03:15:29.027Z,10.20
2019-05-11T03:18:01.860Z,10.20
2019-05-11T03:20:36.496Z,10.10
2019-05-11T03:23:09.316Z,10.10
2019-05-11T03:25:42.134Z,10.10
2019-05-11T03:28:14.937Z,10.10
2019-05-11T03:30:47.758Z,10.10
2019-05-11T03:33:20.679Z,10.10
2019-05-11T03:35:53.477Z,10.00
2019-05-11T03:38:26.296Z,10.10
2019-05-11T03:40:59.164Z,10.00
2019-05-11T03:43:31.982Z,10.00
2019-05-11T03:46:04.792Z,10.00
2019-05-11T03:48:37.648Z,10.00
2019-05-11T03:51:10.463Z,10.00
2019-05-11T03:53:43.282Z,10.00
2019-05-11T03:56:16.063Z,10.00
2019-05-11T03:58:48.924Z,10.00
2019-05-11T04:01:21.748Z,10.00
2019-05-11T04:03:54.553Z,10.00
2019-05-11T04:06:27.354Z,10.00
2019-05-11T04:09:00.176Z,10.00
2019-05-11T04:11:32.988Z,10.00
2019-05-11T04:14:05.810Z,9.90
2019-05-11T04:16:38.622Z,10.00
2019-05-11T04:19:11.471Z,10.00
2019-05-11T04:21:44.272Z,10.00
2019-05-11T04:24:17.100Z,10.00
2019-05-11T04:26:49.897Z,10.00
2019-05-11T04:29:22.726Z,10.10
2019-05-11T04:31:55.522Z,10.00
2019-05-11T04:34:28.338Z,10.10
2019-05-11T04:37:01.136Z,10.10
2019-05-11T04:39:33.971Z,10.00
2019-05-11T04:42:06.841Z,10.00
2019-05-11T04:44:39.697Z,10.10
2019-05-11T04:47:12.599Z,10.10
2019-05-11T04:49:45.428Z,10.00
2019-05-11T04:52:19.379Z,10.10
2019-05-11T04:54:52.187Z,10.00
2019-05-11T04:57:25.000Z,10.00
2019-05-11T04:59:57.817Z,10.10
2019-05-11T05:02:30.657Z,10.00
2019-05-11T05:05:04.355Z,10.00
2019-05-11T05:07:37.134Z,10.10
2019-05-11T05:10:14.075Z,10.10
2019-05-11T05:12:50.777Z,10.10
2019-05-11T05:15:19.730Z,10.10
2019-05-11T05:17:52.535Z,10.10
2019-05-11T05:20:25.412Z,10.10
2019-05-11T05:22:58.205Z,10.10
2019-05-11T05:25:32.159Z,10.10
2019-05-11T05:28:04.978Z,10.10
2019-05-11T05:30:38.577Z,10.10
2019-05-11T05:33:11.542Z,10.00
2019-05-11T05:35:44.369Z,10.00
2019-05-11T05:38:17.200Z,10.00
2019-05-11T05:40:50.033Z,10.10
2019-05-11T05:43:27.500Z,10.10
2019-05-11T05:45:57.617Z,10.10
2019-05-11T05:48:30.416Z,10.10
2019-05-11T05:51:03.264Z,10.20
2019-05-11T05:53:36.075Z,10.20
2019-05-11T05:56:08.927Z,10.20
2019-05-11T05:58:41.753Z,10.20
2019-05-11T06:01:14.649Z,10.20
2019-05-11T06:03:47.571Z,10.20
2019-05-11T06:06:20.403Z,10.20
2019-05-11T06:08:53.234Z,10.20
2019-05-11T06:11:26.054Z,10.20
2019-05-11T06:13:58.857Z,10.20
2019-05-11T06:16:31.711Z,10.20
2019-05-11T06:19:04.529Z,10.20
2019-05-11T06:21:37.366Z,10.20
2019-05-11T06:24:10.215Z,10.20
2019-05-11T06:26:43.139Z,10.30
2019-05-11T06:29:16.124Z,10.30
2019-05-11T06:31:49.064Z,10.30
2019-05-11T06:34:21.890Z,10.30
2019-05-11T06:36:54.739Z,10.30
2019-05-11T06:39:27.596Z,10.40
2019-05-11T06:42:00.466Z,10.60
2019-05-11T06:44:33.266Z,10.60
2019-05-11T06:47:06.114Z,10.60
2019-05-11T06:49:38.954Z,10.70
2019-05-11T06:52:11.800Z,10.60
2019-05-11T06:54:44.610Z,10.70
2019-05-11T06:57:17.605Z,10.60
2019-05-11T06:59:50.431Z,10.70
2019-05-11T07:02:25.077Z,10.60
2019-05-11T07:04:57.897Z,10.60
2019-05-11T07:07:45.249Z,10.70
2019-05-11T07:10:06.227Z,10.80
2019-05-11T07:12:39.057Z,10.80
2019-05-11T07:15:12.088Z,10.80
2019-05-11T07:17:45.037Z,10.70
2019-05-11T07:20:18.037Z,10.70
2019-05-11T07:22:50.864Z,10.70
2019-05-11T07:25:23.725Z,10.70
2019-05-11T07:27:56.662Z,10.70
2019-05-11T07:30:29.489Z,10.70
2019-05-11T07:33:03.246Z,10.70
2019-05-11T07:35:38.368Z,10.70
2019-05-11T07:38:11.300Z,10.80
2019-05-11T07:40:45.076Z,10.90
2019-05-11T07:43:18.915Z,10.90
2019-05-11T07:45:51.821Z,10.90
2019-05-11T07:48:24.645Z,10.90
2019-05-11T07:50:58.421Z,11.00
2019-05-11T07:53:31.416Z,11.10
2019-05-11T07:56:04.366Z,11.20
2019-05-11T07:58:38.793Z,11.20
2019-05-11T08:01:12.141Z,11.30
2019-05-11T08:03:45.312Z,11.20
2019-05-11T08:06:18.593Z,11.20
2019-05-11T08:08:51.883Z,11.20
2019-05-11T08:11:28.093Z,11.20
2019-05-11T08:14:00.173Z,11.20
2019-05-11T08:16:33.225Z,11.30
2019-05-11T08:19:08.064Z,11.40
2019-05-11T08:21:40.896Z,11.40
2019-05-11T08:24:13.856Z,11.30
2019-05-11T08:26:48.009Z,11.30
2019-05-11T08:29:21.197Z,11.40
2019-05-11T08:31:57.996Z,11.60
2019-05-11T08:34:30.984Z,11.70
2019-05-11T08:37:03.937Z,11.80
2019-05-11T08:39:37.926Z,11.80
2019-05-11T08:42:11.043Z,11.90
2019-05-11T08:44:44.099Z,11.90
2019-05-11T08:47:17.757Z,11.80
2019-05-11T08:49:50.920Z,11.50
2019-05-11T08:52:23.925Z,11.20
2019-05-11T08:54:57.768Z,11.10
2019-05-11T08:57:30.868Z,11.10
2019-05-11T09:00:08.508Z,11.20
2019-05-11T09:02:42.356Z,11.20
2019-05-11T09:05:15.309Z,11.20
2019-05-11T09:07:48.569Z,11.30
2019-05-11T09:10:21.501Z,11.30
2019-05-11T09:12:54.539Z,11.30
2019-05-11T09:15:36.306Z,11.30
2019-05-11T09:18:02.417Z,11.40
2019-05-11T09:20:37.661Z,11.50
2019-05-11T09:23:10.095Z,11.60
2019-05-11T09:25:42.976Z,11.70
2019-05-11T09:28:17.994Z,11.90
2019-05-11T09:30:50.738Z,11.90
2019-05-11T09:33:23.586Z,11.80
2019-05-11T09:35:58.359Z,11.70
2019-05-11T09:38:31.552Z,11.80
2019-05-11T09:41:09.001Z,11.80
2019-05-11T09:43:42.593Z,11.80
2019-05-11T09:46:18.536Z,11.70
2019-05-11T09:48:52.291Z,11.70
2019-05-11T09:51:25.999Z,11.60
2019-05-11T09:53:59.799Z,11.70
2019-05-11T09:56:32.976Z,11.60
2019-05-11T09:59:08.753Z,11.70
2019-05-11T10:01:44.083Z,11.90
2019-05-11T10:04:18.203Z,11.90
2019-05-11T10:06:52.375Z,11.90
2019-05-11T10:09:28.028Z,11.90
2019-05-11T10:12:02.120Z,12.00
2019-05-11T10:14:37.879Z,12.10
2019-05-11T10:17:10.608Z,12.20
2019-05-11T10:19:46.663Z,12.20
2019-05-11T10:22:18.902Z,12.10
2019-05-11T10:24:51.852Z,12.10
2019-05-11T10:27:24.685Z,12.20
2019-05-11T10:29:58.976Z,12.10
2019-05-11T10:32:31.903Z,12.00
2019-05-11T10:35:08.017Z,12.00
2019-05-11T10:37:41.535Z,12.10
2019-05-11T10:40:14.696Z,12.10
2019-05-11T10:42:48.398Z,12.10
2019-05-11T10:45:21.995Z,12.20
2019-05-11T10:48:00.176Z,12.20
2019-05-11T10:50:29.645Z,12.10
2019-05-11T10:53:02.579Z,12.10
2019-05-11T10:55:38.678Z,12.00
2019-05-11T10:58:11.671Z,12.00
2019-05-11T11:00:44.504Z,11.90
2019-05-11T11:03:18.052Z,11.80
2019-05-11T11:05:50.889Z,11.90
2019-05-11T11:08:23.822Z,11.90
2019-05-11T11:10:58.560Z,11.90
2019-05-11T11:13:31.435Z,12.00
2019-05-11T11:16:04.427Z,12.10
2019-05-11T11:18:38.137Z,12.10
2019-05-11T11:21:11.583Z,12.10
2019-05-11T11:23:44.480Z,12.00
2019-05-11T11:26:18.445Z,11.90
2019-05-11T11:28:51.482Z,12.00
2019-05-11T11:31:25.372Z,12.00
2019-05-11T11:33:59.703Z,12.00
2019-05-11T11:36:32.715Z,12.00
2019-05-11T11:39:08.310Z,12.00
2019-05-11T11:41:41.560Z,11.90
2019-05-11T11:44:14.627Z,11.80
2019-05-11T11:46:54.659Z,11.80
2019-05-11T11:49:23.334Z,11.70
2019-05-11T11:51:57.831Z,11.80
2019-05-11T11:54:31.084Z,11.70
2019-05-11T11:57:04.112Z,11.70
2019-05-11T11:59:38.607Z,11.60
2019-05-11T12:02:11.770Z,11.60
2019-05-11T12:04:44.734Z,11.50
2019-05-11T12:07:17.915Z,11.40
2019-05-11T12:09:51.023Z,11.40
2019-05-11T12:12:23.897Z,11.40
2019-05-11T12:14:58.497Z,11.40
2019-05-11T12:17:31.663Z,11.40
2019-05-11T12:20:05.710Z,11.30
2019-05-11T12:22:38.846Z,11.30
2019-05-11T12:25:12.269Z,11.20
2019-05-11T12:27:45.225Z,11.20
2019-05-11T12:30:19.910Z,11.30
2019-05-11T12:32:52.836Z,11.30
2019-05-11T12:35:25.696Z,11.30
2019-05-11T12:37:58.918Z,11.20
2019-05-11T12:40:31.885Z,11.20
2019-05-11T12:43:04.909Z,11.20
2019-05-11T12:45:37.869Z,11.30
2019-05-11T12:48:10.742Z,11.40
2019-05-11T12:50:43.610Z,11.50
2019-05-11T12:53:18.435Z,11.50
2019-05-11T12:55:51.252Z,11.50
2019-05-11T12:58:25.298Z,11.50
2019-05-11T13:00:58.636Z,11.60
2019-05-11T13:03:31.532Z,11.50
2019-05-11T13:06:04.362Z,11.50
2019-05-11T13:08:38.887Z,11.50
2019-05-11T13:11:11.889Z,11.50
2019-05-11T13:13:44.744Z,11.50
2019-05-11T13:16:18.270Z,11.50
2019-05-11T13:18:51.864Z,11.40
2019-05-11T13:21:24.720Z,11.40
2019-05-11T13:23:57.832Z,11.40
2019-05-11T13:26:30.854Z,11.50
2019-05-11T13:29:03.697Z,11.50
2019-05-11T13:31:38.424Z,11.60
2019-05-11T13:34:11.361Z,11.50
2019-05-11T13:36:44.365Z,11.50
2019-05-11T13:39:18.087Z,11.50
2019-05-11T13:41:51.110Z,11.50
2019-05-11T13:44:24.003Z,11.40
2019-05-11T13:46:58.673Z,11.30
2019-05-11T13:49:32.559Z,11.30
2019-05-11T13:52:05.721Z,11.30
2019-05-11T13:54:38.709Z,11.30
2019-05-11T13:57:11.626Z,11.20
2019-05-11T13:59:44.471Z,11.20
2019-05-11T14:02:18.027Z,11.20
2019-05-11T14:04:51.058Z,11.20
2019-05-11T14:07:23.935Z,11.20
2019-05-11T14:09:58.803Z,11.10
2019-05-11T14:12:31.614Z,11.10
2019-05-11T14:15:05.186Z,11.10
2019-05-11T14:17:38.236Z,11.10
2019-05-11T14:20:11.230Z,11.10
2019-05-11T14:22:44.115Z,11.20
2019-05-11T14:25:18.553Z,11.20
2019-05-11T14:27:51.780Z,11.30
2019-05-11T14:30:24.758Z,11.20
2019-05-11T14:32:59.450Z,11.30
2019-05-11T14:35:32.339Z,11.40
2019-05-11T14:38:07.829Z,11.40
2019-05-11T14:40:40.146Z,11.40
2019-05-11T14:43:13.139Z,11.40
2019-05-11T14:45:48.630Z,11.40
2019-05-11T14:48:26.407Z,11.40
2019-05-11T14:50:59.054Z,11.40
2019-05-11T14:53:31.459Z,11.40
2019-05-11T14:56:04.389Z,11.40
2019-05-11T14:58:38.638Z,11.30
2019-05-11T15:01:14.641Z,11.20
2019-05-11T15:03:48.561Z,11.10
2019-05-11T15:06:21.679Z,11.00
2019-05-11T15:08:54.569Z,11.00
2019-05-11T15:11:28.056Z,11.10
2019-05-11T15:14:01.152Z,11.10
2019-05-11T15:16:34.344Z,11.10
2019-05-11T15:19:08.077Z,11.20
2019-05-11T15:21:41.205Z,11.20
2019-05-11T15:24:14.064Z,11.10
2019-05-11T15:26:48.596Z,11.10
2019-05-11T15:29:21.685Z,11.00
2019-05-11T15:31:54.590Z,11.00
2019-05-11T15:34:28.829Z,10.90
2019-05-11T15:37:03.374Z,10.80
2019-05-11T15:39:37.903Z,10.80
2019-05-11T15:42:16.839Z,10.70
2019-05-11T15:44:45.668Z,10.70
2019-05-11T15:47:18.530Z,10.60
2019-05-11T15:49:51.595Z,10.60
2019-05-11T15:52:24.481Z,10.60
2019-05-11T15:54:58.552Z,10.60
2019-05-11T15:57:31.445Z,10.50
2019-05-11T16:00:05.549Z,10.50
2019-05-11T16:02:41.159Z,10.50
2019-05-11T16:05:14.148Z,10.50
2019-05-11T16:07:49.183Z,10.50
2019-05-11T16:10:21.808Z,10.50
2019-05-11T16:12:54.798Z,10.60
2019-05-11T16:15:27.834Z,10.50
2019-05-11T16:18:00.702Z,10.60
2019-05-11T16:20:33.607Z,10.60
2019-05-11T16:23:06.592Z,10.60
2019-05-11T16:25:41.050Z,10.60
2019-05-11T16:28:14.296Z,10.60
2019-05-11T16:30:48.218Z,10.60
2019-05-11T16:33:21.585Z,10.60
2019-05-11T16:35:54.827Z,10.60
2019-05-11T16:38:28.988Z,10.60
2019-05-11T16:41:02.176Z,10.60
2019-05-11T16:43:35.278Z,10.60
2019-05-11T16:46:10.195Z,10.70
2019-05-11T16:48:43.236Z,10.70
2019-05-11T16:51:17.709Z,10.70
2019-05-11T16:53:51.288Z,10.70
2019-05-11T16:56:25.398Z,10.70
2019-05-11T16:58:58.984Z,10.70
2019-05-11T17:01:32.755Z,10.70
2019-05-11T17:04:05.853Z,10.60
2019-05-11T17:06:38.889Z,10.70
2019-05-11T17:09:11.838Z,10.70
2019-05-11T17:11:44.681Z,10.70
2019-05-11T17:14:18.768Z,10.70
2019-05-11T17:16:51.861Z,10.70
2019-05-11T17:19:24.776Z,10.70
2019-05-11T17:21:57.618Z,10.70
2019-05-11T17:24:30.492Z,10.70
2019-05-11T17:27:03.466Z,10.70
2019-05-11T17:29:38.097Z,10.60
2019-05-11T17:32:11.375Z,10.60
2019-05-11T17:34:44.363Z,10.60
2019-05-11T17:37:18.356Z,10.60
2019-05-11T17:39:51.509Z,10.60
2019-05-11T17:42:24.332Z,10.50
2019-05-11T17:44:58.898Z,10.50
2019-05-11T17:47:31.997Z,10.40
2019-05-11T17:50:07.941Z,10.30
2019-05-11T17:52:40.364Z,10.40
2019-05-11T17:55:13.238Z,10.30
2019-05-11T17:57:46.059Z,10.20
2019-05-11T18:00:20.901Z,10.30
2019-05-11T18:02:53.802Z,10.40
2019-05-11T18:05:26.697Z,10.40
2019-05-11T18:07:59.556Z,10.40
2019-05-11T18:10:33.831Z,10.30
2019-05-11T18:13:06.726Z,10.30
2019-05-11T18:15:39.597Z,10.30
2019-05-11T18:18:12.476Z,10.30
2019-05-11T18:20:45.326Z,10.40
2019-05-11T18:23:18.221Z,10.40
2019-05-11T18:25:51.144Z,10.40
2019-05-11T18:28:24.008Z,10.40
2019-05-11T18:30:58.189Z,10.50
2019-05-11T18:33:31.347Z,10.40
2019-05-11T18:36:04.240Z,10.40
2019-05-11T18:38:38.728Z,10.40
2019-05-11T18:41:11.597Z,10.30
2019-05-11T18:43:44.567Z,10.30
2019-05-11T18:46:17.518Z,10.20
2019-05-11T18:48:50.418Z,10.20
2019-05-11T18:51:23.398Z,10.20
2019-05-11T18:53:58.468Z,10.20
2019-05-11T18:56:31.231Z,10.20
2019-05-11T18:59:04.139Z,10.10
2019-05-11T19:01:38.027Z,10.10
2019-05-11T19:04:12.523Z,10.00
2019-05-11T19:06:45.510Z,10.00
2019-05-11T19:09:18.443Z,9.90
2019-05-11T19:11:51.955Z,9.80
2019-05-11T19:14:24.785Z,9.70
2019-05-11T19:16:57.628Z,9.60
2019-05-11T19:19:30.485Z,9.60
2019-05-11T19:22:03.439Z,9.60
2019-05-11T19:24:38.318Z,9.50
2019-05-11T19:27:11.137Z,9.50
2019-05-11T19:29:43.988Z,9.50
2019-05-11T19:32:19.116Z,9.40
2019-05-11T19:34:51.690Z,9.40
2019-05-11T19:37:27.922Z,9.30
2019-05-11T19:40:00.586Z,9.30
2019-05-11T19:42:37.904Z,9.10
2019-05-11T19:45:11.082Z,9.00
2019-05-11T19:47:43.910Z,8.90
2019-05-11T19:50:16.776Z,8.90
2019-05-11T19:52:49.623Z,8.90
2019-05-11T19:55:22.524Z,8.90
2019-05-11T19:57:55.519Z,9.00
2019-05-11T20:00:28.616Z,9.00
2019-05-11T20:03:01.473Z,8.90
2019-05-11T20:05:34.561Z,8.90
2019-05-11T20:08:07.973Z,8.90
2019-05-11T20:10:41.050Z,8.90
2019-05-11T20:13:14.268Z,8.80
2019-05-11T20:15:48.508Z,8.90
2019-05-11T20:18:21.647Z,8.90
2019-05-11T20:20:54.536Z,8.80
2019-05-11T20:23:28.877Z,8.70
2019-05-11T20:26:01.809Z,8.70
2019-05-11T20:28:34.818Z,8.60
2019-05-11T20:31:08.129Z,8.60
2019-05-11T20:33:41.246Z,8.60
2019-05-11T20:36:14.105Z,8.60
2019-05-11T20:38:47.728Z,8.70
2019-05-11T20:41:20.720Z,8.70
2019-05-11T20:43:53.758Z,8.70
2019-05-11T20:46:27.749Z,8.80
2019-05-11T20:49:00.897Z,8.80
2019-05-11T20:51:37.040Z,8.80
2019-05-11T20:54:08.934Z,8.80
2019-05-11T20:56:42.024Z,8.80
2019-05-11T20:59:15.231Z,8.80
2019-05-11T21:01:48.132Z,9.00
2019-05-11T21:04:20.970Z,8.80
2019-05-11T21:06:53.948Z,8.80
2019-05-11T21:09:28.750Z,8.80
2019-05-11T21:12:03.151Z,8.80
2019-05-11T21:14:38.421Z,8.80
2019-05-11T21:17:10.976Z,8.80
2019-05-11T21:19:43.821Z,8.70
2019-05-11T21:22:16.655Z,8.60
2019-05-11T21:24:49.688Z,8.60
2019-05-11T21:27:22.633Z,8.50
2019-05-11T21:29:55.435Z,8.40
2019-05-11T21:32:28.299Z,8.40
2019-05-11T21:35:01.414Z,8.40
2019-05-11T21:37:34.330Z,8.30
2019-05-11T21:40:08.783Z,8.30
2019-05-11T21:42:41.907Z,8.30
2019-05-11T21:45:18.360Z,8.30
2019-05-11T21:47:52.160Z,8.30
2019-05-11T21:50:24.973Z,8.30
2019-05-11T21:52:58.919Z,8.20
2019-05-11T21:55:32.037Z,8.20
2019-05-11T21:58:05.067Z,8.10
2019-05-11T22:00:38.811Z,8.10
2019-05-11T22:03:12.880Z,8.10
2019-05-11T22:05:45.720Z,8.20
2019-05-11T22:08:18.645Z,8.20
2019-05-11T22:10:51.635Z,8.20
2019-05-11T22:13:24.494Z,8.20
2019-05-11T22:15:58.052Z,8.20
2019-05-11T22:18:31.552Z,8.20
2019-05-11T22:21:04.497Z,8.10
2019-05-11T22:23:38.551Z,8.10
2019-05-11T22:26:14.522Z,8.10
2019-05-11T22:28:48.125Z,8.10
2019-05-11T22:31:21.201Z,8.20
2019-05-11T22:33:54.054Z,8.10
2019-05-11T22:36:28.190Z,8.10
2019-05-11T22:39:01.366Z,8.10
2019-05-11T22:41:39.336Z,8.10
2019-05-11T22:44:11.171Z,8.00
2019-05-11T22:46:44.146Z,8.00
2019-05-11T22:49:17.785Z,8.00
2019-05-11T22:51:50.643Z,7.90
2019-05-11T22:54:28.781Z,7.80
2019-05-11T22:57:01.044Z,7.80
2019-05-11T22:59:33.877Z,7.80
2019-05-11T23:02:07.671Z,7.70
2019-05-11T23:04:41.576Z,7.70
2019-05-11T23:07:14.423Z,7.70
2019-05-11T23:09:47.294Z,7.80
2019-05-11T23:12:20.131Z,7.80
2019-05-11T23:15:08.575Z,7.80
2019-05-11T23:17:41.749Z,7.70
2019-05-11T23:20:15.079Z,7.70
2019-05-11T23:22:56.738Z,7.70
2019-05-11T23:25:22.758Z,7.70
2019-05-11T23:27:55.693Z,7.70
2019-05-11T23:30:28.531Z,7.70
2019-05-11T23:33:01.348Z,7.70
2019-05-11T23:35:34.234Z,7.60
2019-05-11T23:38:07.091Z,7.50
2019-05-11T23:40:41.022Z,7.40
2019-05-11T23:43:13.938Z,7.40
2019-05-11T23:45:46.794Z,7.20
2019-05-11T23:48:19.653Z,7.20
2019-05-11T23:50:52.494Z,7.00
2019-05-11T23:53:25.341Z,7.00
2019-05-11T23:55:58.203Z,7.00
2019-05-11T23:58:31.035Z,6.90
